sensor_id;sensor_type;location;lat;lon;timestamp;P1;durP1;ratioP1;P2;durP2;ratioP2
34805;SDS011;65084;42.196;25.326;2024-03-23T00:54:40;4.93;;;4.25;;
34805;SDS011;65084;42.196;25.326;2024-03-23T00:57:06;4.32;;;3.67;;
34805;SDS011;65084;42.196;25.326;2024-03-23T00:59:34;4.45;;;4.03;;
34805;SDS011;65084;42.196;25.326;2024-03-23T01:02:00;4.60;;;4.18;;
34805;SDS011;65084;42.196;25.326;2024-03-23T01:04:27;3.78;;;3.47;;
34805;SDS011;65084;42.196;25.326;2024-03-23T01:06:53;10.75;;;4.38;;
34805;SDS011;65084;42.196;25.326;2024-03-23T01:09:21;4.07;;;3.67;;
34805;SDS011;65084;42.196;25.326;2024-03-23T01:11:49;6.97;;;4.20;;
34805;SDS011;65084;42.196;25.326;2024-03-23T01:14:16;5.28;;;4.43;;
34805;SDS011;65084;42.196;25.326;2024-03-23T01:16:42;4.90;;;4.40;;
34805;SDS011;65084;42.196;25.326;2024-03-23T01:19:10;5.20;;;4.35;;
34805;SDS011;65084;42.196;25.326;2024-03-23T01:21:36;4.38;;;3.92;;
34805;SDS011;65084;42.196;25.326;2024-03-23T01:24:03;4.85;;;3.83;;
34805;SDS011;65084;42.196;25.326;2024-03-23T01:26:30;5.18;;;4.35;;
34805;SDS011;65084;42.196;25.326;2024-03-23T01:28:58;4.07;;;3.67;;
34805;SDS011;65084;42.196;25.326;2024-03-23T01:31:24;6.13;;;3.85;;
34805;SDS011;65084;42.196;25.326;2024-03-23T01:33:52;4.57;;;4.18;;
34805;SDS011;65084;42.196;25.326;2024-03-23T01:36:18;4.25;;;3.85;;
34805;SDS011;65084;42.196;25.326;2024-03-23T01:38:45;5.40;;;4.13;;
34805;SDS011;65084;42.196;25.326;2024-03-23T01:41:12;4.30;;;3.90;;
34805;SDS011;65084;42.196;25.326;2024-03-23T01:43:39;6.15;;;4.00;;
34805;SDS011;65084;42.196;25.326;2024-03-23T01:46:07;6.25;;;4.72;;
34805;SDS011;65084;42.196;25.326;2024-03-23T01:48:35;4.50;;;3.72;;
34805;SDS011;65084;42.196;25.326;2024-03-23T01:51:02;5.75;;;4.00;;
34805;SDS011;65084;42.196;25.326;2024-03-23T01:53:30;4.30;;;3.92;;
34805;SDS011;65084;42.196;25.326;2024-03-23T01:55:56;4.97;;;4.45;;
34805;SDS011;65084;42.196;25.326;2024-03-23T01:58:23;4.50;;;3.97;;
34805;SDS011;65084;42.196;25.326;2024-03-23T02:00:50;4.57;;;4.13;;
34805;SDS011;65084;42.196;25.326;2024-03-23T02:03:24;5.15;;;4.50;;
34805;SDS011;65084;42.196;25.326;2024-03-23T02:05:51;5.55;;;4.00;;
34805;SDS011;65084;42.196;25.326;2024-03-23T02:08:20;5.43;;;4.70;;
34805;SDS011;65084;42.196;25.326;2024-03-23T02:10:46;5.18;;;4.55;;
34805;SDS011;65084;42.196;25.326;2024-03-23T02:13:14;6.57;;;4.55;;
34805;SDS011;65084;42.196;25.326;2024-03-23T02:15:40;5.45;;;4.38;;
34805;SDS011;65084;42.196;25.326;2024-03-23T02:18:07;5.50;;;4.30;;
34805;SDS011;65084;42.196;25.326;2024-03-23T02:20:35;5.30;;;4.25;;
34805;SDS011;65084;42.196;25.326;2024-03-23T02:23:04;7.88;;;4.57;;
34805;SDS011;65084;42.196;25.326;2024-03-23T02:25:31;5.53;;;4.18;;
34805;SDS011;65084;42.196;25.326;2024-03-23T02:27:58;6.13;;;5.53;;
34805;SDS011;65084;42.196;25.326;2024-03-23T02:30:25;7.72;;;6.28;;
34805;SDS011;65084;42.196;25.326;2024-03-23T02:32:52;8.55;;;5.38;;
34805;SDS011;65084;42.196;25.326;2024-03-23T02:35:19;5.65;;;4.70;;
34805;SDS011;65084;42.196;25.326;2024-03-23T02:37:46;6.55;;;5.20;;
34805;SDS011;65084;42.196;25.326;2024-03-23T02:40:15;5.55;;;4.93;;
34805;SDS011;65084;42.196;25.326;2024-03-23T02:42:42;10.43;;;4.40;;
34805;SDS011;65084;42.196;25.326;2024-03-23T02:45:08;8.35;;;5.70;;
34805;SDS011;65084;42.196;25.326;2024-03-23T02:47:36;6.78;;;5.30;;
34805;SDS011;65084;42.196;25.326;2024-03-23T02:50:03;6.90;;;5.60;;
34805;SDS011;65084;42.196;25.326;2024-03-23T02:52:30;7.38;;;5.22;;
34805;SDS011;65084;42.196;25.326;2024-03-23T02:54:57;7.80;;;5.13;;
34805;SDS011;65084;42.196;25.326;2024-03-23T02:57:25;5.68;;;4.78;;
34805;SDS011;65084;42.196;25.326;2024-03-23T02:59:52;11.52;;;5.00;;
34805;SDS011;65084;42.196;25.326;2024-03-23T03:02:19;7.13;;;5.78;;
34805;SDS011;65084;42.196;25.326;2024-03-23T03:04:47;14.80;;;5.80;;
34805;SDS011;65084;42.196;25.326;2024-03-23T03:07:13;6.95;;;6.10;;
34805;SDS011;65084;42.196;25.326;2024-03-23T03:09:41;5.70;;;5.13;;
34805;SDS011;65084;42.196;25.326;2024-03-23T03:12:07;8.02;;;5.57;;
34805;SDS011;65084;42.196;25.326;2024-03-23T03:14:36;9.50;;;5.05;;
34805;SDS011;65084;42.196;25.326;2024-03-23T03:17:02;7.07;;;5.93;;
34805;SDS011;65084;42.196;25.326;2024-03-23T03:19:30;7.53;;;6.10;;
34805;SDS011;65084;42.196;25.326;2024-03-23T03:21:56;9.98;;;5.65;;
34805;SDS011;65084;42.196;25.326;2024-03-23T03:24:23;5.80;;;5.22;;
34805;SDS011;65084;42.196;25.326;2024-03-23T03:26:49;8.55;;;5.47;;
34805;SDS011;65084;42.196;25.326;2024-03-23T03:29:17;6.18;;;5.00;;
34805;SDS011;65084;42.196;25.326;2024-03-23T03:31:44;7.20;;;5.50;;
34805;SDS011;65084;42.196;25.326;2024-03-23T03:34:12;6.20;;;5.32;;
34805;SDS011;65084;42.196;25.326;2024-03-23T03:36:38;11.75;;;5.68;;
34805;SDS011;65084;42.196;25.326;2024-03-23T03:39:05;9.50;;;5.95;;
34805;SDS011;65084;42.196;25.326;2024-03-23T03:41:32;7.55;;;6.10;;
34805;SDS011;65084;42.196;25.326;2024-03-23T03:43:59;8.40;;;5.65;;
34805;SDS011;65084;42.196;25.326;2024-03-23T03:46:27;13.65;;;6.28;;
34805;SDS011;65084;42.196;25.326;2024-03-23T03:48:55;8.15;;;5.40;;
34805;SDS011;65084;42.196;25.326;2024-03-23T03:51:22;8.68;;;5.88;;
34805;SDS011;65084;42.196;25.326;2024-03-23T03:53:49;9.77;;;5.60;;
34805;SDS011;65084;42.196;25.326;2024-03-23T03:56:16;8.10;;;6.45;;
34805;SDS011;65084;42.196;25.326;2024-03-23T03:58:44;10.18;;;7.20;;
34805;SDS011;65084;42.196;25.326;2024-03-23T04:01:10;10.15;;;6.80;;
34805;SDS011;65084;42.196;25.326;2024-03-23T04:03:37;19.42;;;7.18;;
34805;SDS011;65084;42.196;25.326;2024-03-23T04:06:10;26.67;;;6.72;;
34805;SDS011;65084;42.196;25.326;2024-03-23T04:08:37;29.67;;;8.15;;
34805;SDS011;65084;42.196;25.326;2024-03-23T04:11:03;9.98;;;7.18;;
34805;SDS011;65084;42.196;25.326;2024-03-23T04:13:30;8.63;;;6.10;;
34805;SDS011;65084;42.196;25.326;2024-03-23T04:15:57;9.60;;;6.05;;
34805;SDS011;65084;42.196;25.326;2024-03-23T04:18:24;11.85;;;8.00;;
34805;SDS011;65084;42.196;25.326;2024-03-23T04:20:51;12.93;;;7.75;;
34805;SDS011;65084;42.196;25.326;2024-03-23T04:23:19;13.57;;;7.50;;
34805;SDS011;65084;42.196;25.326;2024-03-23T04:25:46;19.40;;;9.93;;
34805;SDS011;65084;42.196;25.326;2024-03-23T04:28:13;27.88;;;13.07;;
34805;SDS011;65084;42.196;25.326;2024-03-23T04:30:39;29.55;;;13.50;;
34805;SDS011;65084;42.196;25.326;2024-03-23T04:33:07;14.15;;;8.27;;
34805;SDS011;65084;42.196;25.326;2024-03-23T04:35:33;13.68;;;7.05;;
34805;SDS011;65084;42.196;25.326;2024-03-23T04:38:01;9.40;;;6.75;;
34805;SDS011;65084;42.196;25.326;2024-03-23T04:40:30;18.27;;;9.27;;
34805;SDS011;65084;42.196;25.326;2024-03-23T04:42:57;10.57;;;7.13;;
34805;SDS011;65084;42.196;25.326;2024-03-23T04:45:24;16.52;;;7.05;;
34805;SDS011;65084;42.196;25.326;2024-03-23T04:47:51;19.73;;;10.48;;
34805;SDS011;65084;42.196;25.326;2024-03-23T04:50:19;18.35;;;9.70;;
34805;SDS011;65084;42.196;25.326;2024-03-23T04:52:46;19.02;;;9.90;;
34805;SDS011;65084;42.196;25.326;2024-03-23T04:55:13;15.82;;;7.65;;
34805;SDS011;65084;42.196;25.326;2024-03-23T04:57:42;9.43;;;6.32;;
34805;SDS011;65084;42.196;25.326;2024-03-23T05:00:08;18.65;;;7.53;;
34805;SDS011;65084;42.196;25.326;2024-03-23T05:02:42;9.23;;;6.03;;
34805;SDS011;65084;42.196;25.326;2024-03-23T05:05:09;8.43;;;6.38;;
34805;SDS011;65084;42.196;25.326;2024-03-23T05:07:37;19.27;;;7.25;;
34805;SDS011;65084;42.196;25.326;2024-03-23T05:10:03;17.83;;;8.05;;
34805;SDS011;65084;42.196;25.326;2024-03-23T05:12:35;24.60;;;8.75;;
34805;SDS011;65084;42.196;25.326;2024-03-23T05:15:04;18.70;;;8.57;;
34805;SDS011;65084;42.196;25.326;2024-03-23T05:17:30;18.50;;;7.60;;
34805;SDS011;65084;42.196;25.326;2024-03-23T05:19:58;13.50;;;6.53;;
34805;SDS011;65084;42.196;25.326;2024-03-23T05:22:24;11.23;;;6.90;;
34805;SDS011;65084;42.196;25.326;2024-03-23T05:24:52;10.50;;;7.38;;
34805;SDS011;65084;42.196;25.326;2024-03-23T05:27:18;13.85;;;8.98;;
34805;SDS011;65084;42.196;25.326;2024-03-23T05:29:45;13.27;;;7.80;;
34805;SDS011;65084;42.196;25.326;2024-03-23T05:32:13;16.48;;;7.13;;
34805;SDS011;65084;42.196;25.326;2024-03-23T05:34:41;12.68;;;7.15;;
34805;SDS011;65084;42.196;25.326;2024-03-23T05:37:07;13.98;;;7.57;;
34805;SDS011;65084;42.196;25.326;2024-03-23T05:39:34;11.18;;;6.95;;
34805;SDS011;65084;42.196;25.326;2024-03-23T05:42:01;11.57;;;6.25;;
34805;SDS011;65084;42.196;25.326;2024-03-23T05:44:28;8.77;;;5.70;;
34805;SDS011;65084;42.196;25.326;2024-03-23T05:46:54;12.30;;;6.10;;
34805;SDS011;65084;42.196;25.326;2024-03-23T05:49:23;15.25;;;5.82;;
34805;SDS011;65084;42.196;25.326;2024-03-23T05:51:50;12.52;;;5.97;;
34805;SDS011;65084;42.196;25.326;2024-03-23T05:54:17;12.63;;;6.20;;
34805;SDS011;65084;42.196;25.326;2024-03-23T05:56:43;11.18;;;6.82;;
34805;SDS011;65084;42.196;25.326;2024-03-23T05:59:10;12.55;;;7.75;;
34805;SDS011;65084;42.196;25.326;2024-03-23T06:01:37;12.98;;;7.85;;
34805;SDS011;65084;42.196;25.326;2024-03-23T06:04:04;21.23;;;8.20;;
34805;SDS011;65084;42.196;25.326;2024-03-23T06:06:32;11.90;;;7.93;;
34805;SDS011;65084;42.196;25.326;2024-03-23T06:08:59;15.32;;;6.95;;
34805;SDS011;65084;42.196;25.326;2024-03-23T06:11:25;16.90;;;9.77;;
34805;SDS011;65084;42.196;25.326;2024-03-23T06:13:52;11.73;;;8.30;;
34805;SDS011;65084;42.196;25.326;2024-03-23T06:16:19;14.38;;;9.18;;
34805;SDS011;65084;42.196;25.326;2024-03-23T06:18:48;13.23;;;9.27;;
34805;SDS011;65084;42.196;25.326;2024-03-23T06:21:15;11.07;;;9.20;;
34805;SDS011;65084;42.196;25.326;2024-03-23T06:23:44;10.32;;;8.30;;
34805;SDS011;65084;42.196;25.326;2024-03-23T06:26:16;14.15;;;7.10;;
34805;SDS011;65084;42.196;25.326;2024-03-23T06:28:43;12.60;;;7.95;;
34805;SDS011;65084;42.196;25.326;2024-03-23T06:31:09;12.32;;;8.35;;
34805;SDS011;65084;42.196;25.326;2024-03-23T06:33:36;15.05;;;7.50;;
34805;SDS011;65084;42.196;25.326;2024-03-23T06:36:03;11.68;;;6.22;;
34805;SDS011;65084;42.196;25.326;2024-03-23T06:38:30;10.30;;;6.80;;
34805;SDS011;65084;42.196;25.326;2024-03-23T06:40:58;8.65;;;5.82;;
34805;SDS011;65084;42.196;25.326;2024-03-23T06:43:25;9.07;;;6.97;;
34805;SDS011;65084;42.196;25.326;2024-03-23T06:45:52;7.35;;;6.00;;
34805;SDS011;65084;42.196;25.326;2024-03-23T06:48:19;10.07;;;6.35;;
34805;SDS011;65084;42.196;25.326;2024-03-23T06:50:46;10.30;;;6.85;;
34805;SDS011;65084;42.196;25.326;2024-03-23T06:53:13;10.50;;;6.22;;
34805;SDS011;65084;42.196;25.326;2024-03-23T06:55:39;17.25;;;7.07;;
34805;SDS011;65084;42.196;25.326;2024-03-23T06:58:08;14.13;;;6.22;;
34805;SDS011;65084;42.196;25.326;2024-03-23T07:00:35;14.85;;;7.30;;
34805;SDS011;65084;42.196;25.326;2024-03-23T07:03:02;9.75;;;7.07;;
34805;SDS011;65084;42.196;25.326;2024-03-23T07:05:29;14.43;;;6.85;;
34805;SDS011;65084;42.196;25.326;2024-03-23T07:07:56;10.40;;;6.50;;
34805;SDS011;65084;42.196;25.326;2024-03-23T07:10:22;15.43;;;6.60;;
34805;SDS011;65084;42.196;25.326;2024-03-23T07:12:49;6.00;;;4.93;;
34805;SDS011;65084;42.196;25.326;2024-03-23T07:15:17;8.05;;;6.10;;
34805;SDS011;65084;42.196;25.326;2024-03-23T07:17:46;12.30;;;7.10;;
34805;SDS011;65084;42.196;25.326;2024-03-23T07:20:12;6.10;;;5.10;;
34805;SDS011;65084;42.196;25.326;2024-03-23T07:22:40;6.47;;;4.85;;
34805;SDS011;65084;42.196;25.326;2024-03-23T07:25:06;7.68;;;4.78;;
34805;SDS011;65084;42.196;25.326;2024-03-23T07:27:33;12.25;;;6.20;;
34805;SDS011;65084;42.196;25.326;2024-03-23T07:30:00;6.63;;;5.32;;
34805;SDS011;65084;42.196;25.326;2024-03-23T07:32:28;8.95;;;5.45;;
34805;SDS011;65084;42.196;25.326;2024-03-23T07:34:55;10.18;;;5.43;;
34805;SDS011;65084;42.196;25.326;2024-03-23T07:37:22;7.22;;;5.65;;
34805;SDS011;65084;42.196;25.326;2024-03-23T07:39:48;6.20;;;5.35;;
34805;SDS011;65084;42.196;25.326;2024-03-23T07:42:15;8.05;;;6.00;;
34805;SDS011;65084;42.196;25.326;2024-03-23T07:44:42;6.03;;;5.20;;
34805;SDS011;65084;42.196;25.326;2024-03-23T07:47:09;9.75;;;4.55;;
34805;SDS011;65084;42.196;25.326;2024-03-23T07:49:37;10.88;;;5.53;;
34805;SDS011;65084;42.196;25.326;2024-03-23T07:52:05;7.80;;;6.28;;
34805;SDS011;65084;42.196;25.326;2024-03-23T07:54:31;6.00;;;5.40;;
34805;SDS011;65084;42.196;25.326;2024-03-23T07:56:58;18.17;;;5.57;;
34805;SDS011;65084;42.196;25.326;2024-03-23T07:59:24;7.03;;;5.72;;
34805;SDS011;65084;42.196;25.326;2024-03-23T08:01:52;5.65;;;5.15;;
34805;SDS011;65084;42.196;25.326;2024-03-23T08:04:18;8.10;;;6.65;;
34805;SDS011;65084;42.196;25.326;2024-03-23T08:06:47;9.15;;;5.90;;
34805;SDS011;65084;42.196;25.326;2024-03-23T08:09:13;7.22;;;6.05;;
34805;SDS011;65084;42.196;25.326;2024-03-23T08:11:41;18.50;;;8.98;;
34805;SDS011;65084;42.196;25.326;2024-03-23T08:14:09;13.82;;;6.00;;
34805;SDS011;65084;42.196;25.326;2024-03-23T08:16:36;6.03;;;5.35;;
34805;SDS011;65084;42.196;25.326;2024-03-23T08:19:02;6.70;;;5.70;;
34805;SDS011;65084;42.196;25.326;2024-03-23T08:21:30;7.03;;;6.32;;
34805;SDS011;65084;42.196;25.326;2024-03-23T08:23:58;6.13;;;5.40;;
34805;SDS011;65084;42.196;25.326;2024-03-23T08:26:25;6.85;;;6.03;;
34805;SDS011;65084;42.196;25.326;2024-03-23T08:28:51;12.77;;;7.30;;
34805;SDS011;65084;42.196;25.326;2024-03-23T08:31:19;8.23;;;5.93;;
34805;SDS011;65084;42.196;25.326;2024-03-23T08:33:45;6.28;;;5.20;;
34805;SDS011;65084;42.196;25.326;2024-03-23T08:36:12;6.57;;;5.85;;
34805;SDS011;65084;42.196;25.326;2024-03-23T08:38:39;6.25;;;5.65;;
34805;SDS011;65084;42.196;25.326;2024-03-23T08:41:08;9.77;;;6.10;;
34805;SDS011;65084;42.196;25.326;2024-03-23T08:43:36;8.45;;;6.25;;
34805;SDS011;65084;42.196;25.326;2024-03-23T08:46:04;9.07;;;6.40;;
34805;SDS011;65084;42.196;25.326;2024-03-23T08:48:31;8.18;;;5.55;;
34805;SDS011;65084;42.196;25.326;2024-03-23T08:50:59;6.93;;;5.63;;
34805;SDS011;65084;42.196;25.326;2024-03-23T08:53:27;6.40;;;5.80;;
34805;SDS011;65084;42.196;25.326;2024-03-23T08:55:54;11.32;;;7.07;;
34805;SDS011;65084;42.196;25.326;2024-03-23T08:58:22;6.78;;;5.82;;
34805;SDS011;65084;42.196;25.326;2024-03-23T09:00:50;6.60;;;5.80;;
34805;SDS011;65084;42.196;25.326;2024-03-23T09:03:17;9.73;;;7.35;;
34805;SDS011;65084;42.196;25.326;2024-03-23T09:05:44;6.22;;;5.63;;
34805;SDS011;65084;42.196;25.326;2024-03-23T09:08:10;9.35;;;6.40;;
34805;SDS011;65084;42.196;25.326;2024-03-23T09:10:38;7.45;;;6.30;;
34805;SDS011;65084;42.196;25.326;2024-03-23T09:13:04;6.03;;;5.43;;
34805;SDS011;65084;42.196;25.326;2024-03-23T09:15:33;9.20;;;6.43;;
34805;SDS011;65084;42.196;25.326;2024-03-23T09:18:00;7.65;;;6.25;;
34805;SDS011;65084;42.196;25.326;2024-03-23T09:20:27;6.78;;;5.90;;
34805;SDS011;65084;42.196;25.326;2024-03-23T09:22:53;8.02;;;6.35;;
34805;SDS011;65084;42.196;25.326;2024-03-23T09:25:21;9.82;;;7.47;;
34805;SDS011;65084;42.196;25.326;2024-03-23T09:27:47;7.45;;;6.45;;
34805;SDS011;65084;42.196;25.326;2024-03-23T09:30:14;7.53;;;6.03;;
34805;SDS011;65084;42.196;25.326;2024-03-23T09:32:42;7.60;;;6.63;;
34805;SDS011;65084;42.196;25.326;2024-03-23T09:35:10;7.70;;;6.00;;
34805;SDS011;65084;42.196;25.326;2024-03-23T09:37:36;13.60;;;6.35;;
34805;SDS011;65084;42.196;25.326;2024-03-23T09:40:05;6.90;;;6.20;;
34805;SDS011;65084;42.196;25.326;2024-03-23T09:42:32;10.55;;;6.30;;
34805;SDS011;65084;42.196;25.326;2024-03-23T09:45:00;7.90;;;5.78;;
34805;SDS011;65084;42.196;25.326;2024-03-23T09:47:26;6.32;;;5.72;;
34805;SDS011;65084;42.196;25.326;2024-03-23T09:49:55;11.77;;;6.38;;
34805;SDS011;65084;42.196;25.326;2024-03-23T09:52:22;19.70;;;10.45;;
34805;SDS011;65084;42.196;25.326;2024-03-23T09:54:49;7.43;;;5.75;;
34805;SDS011;65084;42.196;25.326;2024-03-23T09:57:15;5.78;;;5.25;;
34805;SDS011;65084;42.196;25.326;2024-03-23T09:59:43;5.80;;;5.30;;
34805;SDS011;65084;42.196;25.326;2024-03-23T10:02:09;5.95;;;5.45;;
34805;SDS011;65084;42.196;25.326;2024-03-23T10:04:42;8.73;;;5.30;;
34805;SDS011;65084;42.196;25.326;2024-03-23T10:07:13;6.63;;;5.20;;
34805;SDS011;65084;42.196;25.326;2024-03-23T10:09:42;5.50;;;5.00;;
34805;SDS011;65084;42.196;25.326;2024-03-23T10:12:09;6.90;;;5.05;;
34805;SDS011;65084;42.196;25.326;2024-03-23T10:14:37;9.20;;;4.75;;
34805;SDS011;65084;42.196;25.326;2024-03-23T10:17:11;5.72;;;5.13;;
34805;SDS011;65084;42.196;25.326;2024-03-23T10:19:39;5.95;;;4.78;;
34805;SDS011;65084;42.196;25.326;2024-03-23T10:22:06;7.80;;;4.60;;
34805;SDS011;65084;42.196;25.326;2024-03-23T10:24:34;6.38;;;5.03;;
34805;SDS011;65084;42.196;25.326;2024-03-23T10:27:01;5.53;;;5.03;;
34805;SDS011;65084;42.196;25.326;2024-03-23T10:29:28;5.00;;;3.80;;
34805;SDS011;65084;42.196;25.326;2024-03-23T10:31:55;5.55;;;4.13;;
34805;SDS011;65084;42.196;25.326;2024-03-23T10:34:34;4.88;;;4.47;;
34805;SDS011;65084;42.196;25.326;2024-03-23T10:37:01;6.78;;;4.22;;
34805;SDS011;65084;42.196;25.326;2024-03-23T10:39:29;5.05;;;4.35;;
34805;SDS011;65084;42.196;25.326;2024-03-23T10:41:57;4.90;;;4.18;;
34805;SDS011;65084;42.196;25.326;2024-03-23T10:44:25;5.80;;;3.92;;
34805;SDS011;65084;42.196;25.326;2024-03-23T10:46:54;5.55;;;4.25;;
34805;SDS011;65084;42.196;25.326;2024-03-23T10:49:25;6.15;;;3.80;;
34805;SDS011;65084;42.196;25.326;2024-03-23T10:51:51;4.35;;;3.95;;
34805;SDS011;65084;42.196;25.326;2024-03-23T10:54:19;5.60;;;4.50;;
34805;SDS011;65084;42.196;25.326;2024-03-23T10:56:46;3.88;;;3.30;;
34805;SDS011;65084;42.196;25.326;2024-03-23T10:59:15;3.80;;;3.40;;
34805;SDS011;65084;42.196;25.326;2024-03-23T11:01:53;3.65;;;3.35;;
34805;SDS011;65084;42.196;25.326;2024-03-23T11:04:30;4.00;;;3.60;;
34805;SDS011;65084;42.196;25.326;2024-03-23T11:06:57;3.88;;;3.45;;
34805;SDS011;65084;42.196;25.326;2024-03-23T11:09:39;3.50;;;3.20;;
34805;SDS011;65084;42.196;25.326;2024-03-23T11:12:25;6.88;;;3.45;;
34805;SDS011;65084;42.196;25.326;2024-03-23T11:14:54;5.47;;;3.80;;
34805;SDS011;65084;42.196;25.326;2024-03-23T11:17:22;4.55;;;3.15;;
34805;SDS011;65084;42.196;25.326;2024-03-23T11:19:55;2.78;;;2.58;;
34805;SDS011;65084;42.196;25.326;2024-03-23T11:22:38;5.97;;;3.80;;
34805;SDS011;65084;42.196;25.326;2024-03-23T11:25:12;2.67;;;2.40;;
34805;SDS011;65084;42.196;25.326;2024-03-23T11:27:39;2.70;;;2.50;;
34805;SDS011;65084;42.196;25.326;2024-03-23T11:30:14;2.53;;;2.33;;
34805;SDS011;65084;42.196;25.326;2024-03-23T11:32:41;4.43;;;4.03;;
34805;SDS011;65084;42.196;25.326;2024-03-23T11:35:08;9.60;;;3.40;;
34805;SDS011;65084;42.196;25.326;2024-03-23T11:37:36;10.40;;;3.92;;
34805;SDS011;65084;42.196;25.326;2024-03-23T11:40:18;3.70;;;2.85;;
34805;SDS011;65084;42.196;25.326;2024-03-23T11:42:45;2.58;;;2.38;;
34805;SDS011;65084;42.196;25.326;2024-03-23T11:45:14;4.30;;;2.45;;
34805;SDS011;65084;42.196;25.326;2024-03-23T11:47:41;2.40;;;2.20;;
34805;SDS011;65084;42.196;25.326;2024-03-23T11:50:08;8.07;;;3.53;;
34805;SDS011;65084;42.196;25.326;2024-03-23T11:52:35;3.38;;;2.78;;
34805;SDS011;65084;42.196;25.326;2024-03-23T11:55:03;3.60;;;3.05;;
34805;SDS011;65084;42.196;25.326;2024-03-23T11:57:30;3.15;;;2.40;;
34805;SDS011;65084;42.196;25.326;2024-03-23T11:59:57;2.83;;;2.42;;
34805;SDS011;65084;42.196;25.326;2024-03-23T12:02:25;5.22;;;2.00;;
34805;SDS011;65084;42.196;25.326;2024-03-23T12:04:52;3.08;;;2.80;;
34805;SDS011;65084;42.196;25.326;2024-03-23T12:07:19;2.50;;;2.30;;
34805;SDS011;65084;42.196;25.326;2024-03-23T12:09:47;2.17;;;2.08;;
34805;SDS011;65084;42.196;25.326;2024-03-23T12:12:28;6.45;;;2.10;;
34805;SDS011;65084;42.196;25.326;2024-03-23T12:15:03;4.63;;;2.70;;
34805;SDS011;65084;42.196;25.326;2024-03-23T12:17:31;2.47;;;2.25;;
34805;SDS011;65084;42.196;25.326;2024-03-23T12:20:00;7.95;;;6.47;;
34805;SDS011;65084;42.196;25.326;2024-03-23T12:22:26;6.18;;;5.68;;
34805;SDS011;65084;42.196;25.326;2024-03-23T12:24:54;4.72;;;3.90;;
34805;SDS011;65084;42.196;25.326;2024-03-23T12:27:20;2.70;;;2.50;;
34805;SDS011;65084;42.196;25.326;2024-03-23T12:29:48;2.88;;;2.40;;
34805;SDS011;65084;42.196;25.326;2024-03-23T12:32:14;2.40;;;2.20;;
34805;SDS011;65084;42.196;25.326;2024-03-23T12:34:45;2.20;;;2.00;;
34805;SDS011;65084;42.196;25.326;2024-03-23T12:37:12;2.15;;;2.05;;
34805;SDS011;65084;42.196;25.326;2024-03-23T12:39:41;26.88;;;14.82;;
34805;SDS011;65084;42.196;25.326;2024-03-23T12:42:07;12.07;;;6.20;;
34805;SDS011;65084;42.196;25.326;2024-03-23T12:44:34;3.00;;;2.80;;
34805;SDS011;65084;42.196;25.326;2024-03-23T12:47:01;4.13;;;2.70;;
34805;SDS011;65084;42.196;25.326;2024-03-23T12:49:28;1.85;;;1.75;;
34805;SDS011;65084;42.196;25.326;2024-03-23T12:51:56;2.28;;;2.08;;
34805;SDS011;65084;42.196;25.326;2024-03-23T12:54:24;1.63;;;1.52;;
34805;SDS011;65084;42.196;25.326;2024-03-23T12:56:51;2.35;;;2.15;;
34805;SDS011;65084;42.196;25.326;2024-03-23T12:59:18;2.40;;;2.20;;
34805;SDS011;65084;42.196;25.326;2024-03-23T13:01:45;2.75;;;1.95;;
34805;SDS011;65084;42.196;25.326;2024-03-23T13:04:12;3.78;;;2.10;;
34805;SDS011;65084;42.196;25.326;2024-03-23T13:06:39;1.90;;;1.80;;
34805;SDS011;65084;42.196;25.326;2024-03-23T13:09:07;3.63;;;2.10;;
34805;SDS011;65084;42.196;25.326;2024-03-23T13:11:34;3.88;;;2.05;;
34805;SDS011;65084;42.196;25.326;2024-03-23T13:14:01;2.25;;;2.05;;
34805;SDS011;65084;42.196;25.326;2024-03-23T13:16:29;2.33;;;1.83;;
34805;SDS011;65084;42.196;25.326;2024-03-23T13:18:59;2.25;;;2.10;;
34805;SDS011;65084;42.196;25.326;2024-03-23T13:21:26;2.15;;;1.95;;
34805;SDS011;65084;42.196;25.326;2024-03-23T13:23:53;2.75;;;2.00;;
34805;SDS011;65084;42.196;25.326;2024-03-23T13:26:21;2.55;;;2.10;;
34805;SDS011;65084;42.196;25.326;2024-03-23T13:28:49;2.28;;;2.15;;
34805;SDS011;65084;42.196;25.326;2024-03-23T13:31:15;2.88;;;2.58;;
34805;SDS011;65084;42.196;25.326;2024-03-23T13:33:42;2.80;;;2.60;;
34805;SDS011;65084;42.196;25.326;2024-03-23T13:36:09;3.05;;;2.35;;
34805;SDS011;65084;42.196;25.326;2024-03-23T13:38:36;2.22;;;2.10;;
34805;SDS011;65084;42.196;25.326;2024-03-23T13:41:03;2.30;;;2.10;;
34805;SDS011;65084;42.196;25.326;2024-03-23T13:43:33;2.47;;;2.20;;
34805;SDS011;65084;42.196;25.326;2024-03-23T13:45:59;5.07;;;2.45;;
34805;SDS011;65084;42.196;25.326;2024-03-23T13:48:27;2.88;;;2.28;;
34805;SDS011;65084;42.196;25.326;2024-03-23T13:50:57;1.98;;;1.88;;
34805;SDS011;65084;42.196;25.326;2024-03-23T13:53:24;3.13;;;2.65;;
34805;SDS011;65084;42.196;25.326;2024-03-23T13:58:56;6.30;;;2.22;;
34805;SDS011;65084;42.196;25.326;2024-03-23T14:01:23;7.03;;;2.13;;
34805;SDS011;65084;42.196;25.326;2024-03-23T14:03:49;2.30;;;2.10;;
34805;SDS011;65084;42.196;25.326;2024-03-23T14:06:17;3.50;;;2.25;;
34805;SDS011;65084;42.196;25.326;2024-03-23T14:08:43;1.92;;;1.80;;
34805;SDS011;65084;42.196;25.326;2024-03-23T14:11:10;6.00;;;1.90;;
34805;SDS011;65084;42.196;25.326;2024-03-23T14:13:37;3.13;;;1.83;;
34805;SDS011;65084;42.196;25.326;2024-03-23T14:16:07;2.38;;;2.17;;
34805;SDS011;65084;42.196;25.326;2024-03-23T14:18:33;2.30;;;2.10;;
34805;SDS011;65084;42.196;25.326;2024-03-23T14:21:00;2.70;;;2.50;;
34805;SDS011;65084;42.196;25.326;2024-03-23T14:23:27;2.40;;;1.60;;
34805;SDS011;65084;42.196;25.326;2024-03-23T14:25:55;2.50;;;1.92;;
34805;SDS011;65084;42.196;25.326;2024-03-23T14:28:21;2.20;;;2.00;;
34805;SDS011;65084;42.196;25.326;2024-03-23T14:30:49;1.85;;;1.75;;
34805;SDS011;65084;42.196;25.326;2024-03-23T14:33:18;1.77;;;1.67;;
34805;SDS011;65084;42.196;25.326;2024-03-23T14:35:51;2.88;;;1.58;;
34805;SDS011;65084;42.196;25.326;2024-03-23T14:38:19;2.10;;;2.00;;
34805;SDS011;65084;42.196;25.326;2024-03-23T14:40:46;1.95;;;1.85;;
34805;SDS011;65084;42.196;25.326;2024-03-23T14:43:13;3.10;;;1.75;;
34805;SDS011;65084;42.196;25.326;2024-03-23T14:45:45;2.25;;;1.83;;
34805;SDS011;65084;42.196;25.326;2024-03-23T14:48:15;2.40;;;2.22;;
34805;SDS011;65084;42.196;25.326;2024-03-23T14:50:43;4.45;;;2.42;;
34805;SDS011;65084;42.196;25.326;2024-03-23T14:53:11;1.70;;;1.60;;
34805;SDS011;65084;42.196;25.326;2024-03-23T14:55:39;2.28;;;2.00;;
34805;SDS011;65084;42.196;25.326;2024-03-23T14:58:12;2.50;;;2.20;;
34805;SDS011;65084;42.196;25.326;2024-03-23T15:00:38;7.72;;;1.60;;
34805;SDS011;65084;42.196;25.326;2024-03-23T15:03:06;2.83;;;2.10;;
34805;SDS011;65084;42.196;25.326;2024-03-23T15:05:32;4.50;;;3.25;;
34805;SDS011;65084;42.196;25.326;2024-03-23T15:08:01;2.20;;;2.00;;
34805;SDS011;65084;42.196;25.326;2024-03-23T15:10:28;3.15;;;2.42;;
34805;SDS011;65084;42.196;25.326;2024-03-23T15:12:55;5.70;;;2.10;;
34805;SDS011;65084;42.196;25.326;2024-03-23T15:15:22;4.35;;;1.88;;
34805;SDS011;65084;42.196;25.326;2024-03-23T15:17:49;1.73;;;1.63;;
34805;SDS011;65084;42.196;25.326;2024-03-23T15:20:15;2.03;;;1.60;;
34805;SDS011;65084;42.196;25.326;2024-03-23T15:22:43;1.70;;;1.60;;
34805;SDS011;65084;42.196;25.326;2024-03-23T15:25:10;2.38;;;1.50;;
34805;SDS011;65084;42.196;25.326;2024-03-23T15:27:38;3.00;;;2.75;;
34805;SDS011;65084;42.196;25.326;2024-03-23T15:30:05;2.90;;;2.28;;